sensor_id;sensor_type;location;lat;lon;timestamp;pressure;altitude;pressure_sealevel;temperature;humidity
39455;BME280;25155;41.890;23.446;2023-04-08T00:00:11;91910.91;;;2.12;50.11
39455;BME280;25155;41.890;23.446;2023-04-08T00:02:39;91907.22;;;2.08;50.05
39455;BME280;25155;41.890;23.446;2023-04-08T00:05:06;91915.53;;;2.10;50.13
39455;BME280;25155;41.890;23.446;2023-04-08T00:07:34;91909.00;;;2.08;49.86
39455;BME280;25155;41.890;23.446;2023-04-08T00:10:02;91911.50;;;2.03;50.09
39455;BME280;25155;41.890;23.446;2023-04-08T00:12:31;91913.44;;;1.95;50.58
39455;BME280;25155;41.890;23.446;2023-04-08T00:14:58;91912.88;;;1.93;50.46
39455;BME280;25155;41.890;23.446;2023-04-08T00:17:25;91913.34;;;1.90;50.33
39455;BME280;25155;41.890;23.446;2023-04-08T00:19:53;91920.28;;;1.90;50.26
39455;BME280;25155;41.890;23.446;2023-04-08T00:22:21;91928.31;;;1.88;50.27
39455;BME280;25155;41.890;23.446;2023-04-08T00:24:48;91918.31;;;1.80;51.10
39455;BME280;25155;41.890;23.446;2023-04-08T00:27:15;91932.34;;;1.72;51.39
39455;BME280;25155;41.890;23.446;2023-04-08T00:29:44;91930.44;;;1.68;51.41
39455;BME280;25155;41.890;23.446;2023-04-08T00:32:11;91924.50;;;1.67;51.20
39455;BME280;25155;41.890;23.446;2023-04-08T00:34:39;91921.13;;;1.67;50.91
39455;BME280;25155;41.890;23.446;2023-04-08T00:37:06;91919.56;;;1.66;51.15
39455;BME280;25155;41.890;23.446;2023-04-08T00:39:33;91926.19;;;1.61;50.82
39455;BME280;25155;41.890;23.446;2023-04-08T00:42:01;91921.94;;;1.55;50.74
39455;BME280;25155;41.890;23.446;2023-04-08T00:44:28;91933.03;;;1.56;50.93
39455;BME280;25155;41.890;23.446;2023-04-08T00:46:57;91926.28;;;1.55;50.55
39455;BME280;25155;41.890;23.446;2023-04-08T00:49:25;91924.50;;;1.55;50.79
39455;BME280;25155;41.890;23.446;2023-04-08T00:51:52;91923.50;;;1.56;50.69
39455;BME280;25155;41.890;23.446;2023-04-08T00:54:20;91930.25;;;1.57;50.92
39455;BME280;25155;41.890;23.446;2023-04-08T00:56:47;91926.66;;;1.58;50.77
39455;BME280;25155;41.890;23.446;2023-04-08T00:59:15;91925.06;;;1.57;50.93
39455;BME280;25155;41.890;23.446;2023-04-08T01:01:46;91934.84;;;1.55;51.01
39455;BME280;25155;41.890;23.446;2023-04-08T01:04:27;91935.75;;;1.49;50.92
39455;BME280;25155;41.890;23.446;2023-04-08T01:07:00;91938.31;;;1.49;51.41
39455;BME280;25155;41.890;23.446;2023-04-08T01:09:32;91937.19;;;1.45;51.04
39455;BME280;25155;41.890;23.446;2023-04-08T01:12:05;91940.03;;;1.43;51.10
39455;BME280;25155;41.890;23.446;2023-04-08T01:14:34;91936.63;;;1.43;51.21
39455;BME280;25155;41.890;23.446;2023-04-08T01:17:05;91936.06;;;1.41;51.31
39455;BME280;25155;41.890;23.446;2023-04-08T01:19:39;91941.69;;;1.38;51.13
39455;BME280;25155;41.890;23.446;2023-04-08T01:22:14;91953.59;;;1.39;51.19
39455;BME280;25155;41.890;23.446;2023-04-08T01:24:47;91958.19;;;1.37;51.16
39455;BME280;25155;41.890;23.446;2023-04-08T01:27:18;91953.94;;;1.31;51.70
39455;BME280;25155;41.890;23.446;2023-04-08T01:29:47;91953.22;;;1.23;53.80
39455;BME280;25155;41.890;23.446;2023-04-08T01:32:15;91960.09;;;1.18;53.86
39455;BME280;25155;41.890;23.446;2023-04-08T01:34:43;91957.50;;;1.18;54.18
39455;BME280;25155;41.890;23.446;2023-04-08T01:37:11;91962.66;;;1.18;54.24
39455;BME280;25155;41.890;23.446;2023-04-08T01:39:40;91958.28;;;1.18;54.02
39455;BME280;25155;41.890;23.446;2023-04-08T01:42:08;91962.00;;;1.22;53.96
39455;BME280;25155;41.890;23.446;2023-04-08T01:44:39;91969.75;;;1.22;53.70
39455;BME280;25155;41.890;23.446;2023-04-08T01:47:08;91971.84;;;1.14;54.11
39455;BME280;25155;41.890;23.446;2023-04-08T01:49:37;91973.09;;;1.11;54.20
39455;BME280;25155;41.890;23.446;2023-04-08T01:52:05;91965.34;;;1.11;54.10
39455;BME280;25155;41.890;23.446;2023-04-08T01:54:35;91965.69;;;1.15;53.44
39455;BME280;25155;41.890;23.446;2023-04-08T01:57:04;91966.25;;;1.17;53.38
39455;BME280;25155;41.890;23.446;2023-04-08T01:59:34;91968.28;;;1.15;53.69
39455;BME280;25155;41.890;23.446;2023-04-08T02:02:08;91969.19;;;1.20;53.47
39455;BME280;25155;41.890;23.446;2023-04-08T02:04:37;91974.91;;;1.22;53.39
39455;BME280;25155;41.890;23.446;2023-04-08T02:07:04;91981.19;;;1.27;53.58
39455;BME280;25155;41.890;23.446;2023-04-08T02:09:32;91974.00;;;1.29;53.35
39455;BME280;25155;41.890;23.446;2023-04-08T02:11:59;91985.47;;;1.33;53.32
39455;BME280;25155;41.890;23.446;2023-04-08T02:14:27;91974.38;;;1.32;53.39
39455;BME280;25155;41.890;23.446;2023-04-08T02:16:58;91974.16;;;1.34;53.27
39455;BME280;25155;41.890;23.446;2023-04-08T02:19:34;91974.38;;;1.32;53.55
39455;BME280;25155;41.890;23.446;2023-04-08T02:22:05;91978.59;;;1.27;53.90
39455;BME280;25155;41.890;23.446;2023-04-08T02:24:36;91977.25;;;1.12;55.47
39455;BME280;25155;41.890;23.446;2023-04-08T02:27:06;91980.94;;;1.04;55.86
39455;BME280;25155;41.890;23.446;2023-04-08T02:29:35;91984.28;;;0.93;56.64
39455;BME280;25155;41.890;23.446;2023-04-08T02:32:05;91984.72;;;0.90;56.36
39455;BME280;25155;41.890;23.446;2023-04-08T02:34:39;91981.34;;;0.90;55.67
39455;BME280;25155;41.890;23.446;2023-04-08T02:37:07;91977.91;;;0.96;56.41
39455;BME280;25155;41.890;23.446;2023-04-08T02:39:35;91980.00;;;0.99;55.48
39455;BME280;25155;41.890;23.446;2023-04-08T02:42:03;91972.84;;;1.01;55.72
39455;BME280;25155;41.890;23.446;2023-04-08T02:44:31;91980.72;;;1.06;55.30
39455;BME280;25155;41.890;23.446;2023-04-08T02:46:58;91978.69;;;1.08;55.09
39455;BME280;25155;41.890;23.446;2023-04-08T02:49:26;91967.72;;;1.13;54.72
39455;BME280;25155;41.890;23.446;2023-04-08T02:51:54;91970.84;;;1.15;54.75
39455;BME280;25155;41.890;23.446;2023-04-08T02:54:22;91964.69;;;1.16;54.43
39455;BME280;25155;41.890;23.446;2023-04-08T02:56:49;91969.41;;;1.19;54.34
39455;BME280;25155;41.890;23.446;2023-04-08T02:59:17;91964.25;;;1.19;54.41
39455;BME280;25155;41.890;23.446;2023-04-08T03:01:44;91969.19;;;1.20;54.13
39455;BME280;25155;41.890;23.446;2023-04-08T03:04:11;91964.59;;;1.22;54.47
39455;BME280;25155;41.890;23.446;2023-04-08T03:06:39;91972.88;;;1.24;54.52
39455;BME280;25155;41.890;23.446;2023-04-08T03:09:07;91974.91;;;1.22;54.15
39455;BME280;25155;41.890;23.446;2023-04-08T03:11:35;91976.47;;;1.23;54.47
39455;BME280;25155;41.890;23.446;2023-04-08T03:14:02;91967.59;;;1.19;54.32
39455;BME280;25155;41.890;23.446;2023-04-08T03:16:29;91969.41;;;1.19;54.10
39455;BME280;25155;41.890;23.446;2023-04-08T03:18:57;91966.84;;;1.19;54.11
39455;BME280;25155;41.890;23.446;2023-04-08T03:21:24;91959.88;;;1.19;53.96
39455;BME280;25155;41.890;23.446;2023-04-08T03:23:52;91966.63;;;1.20;54.12
39455;BME280;25155;41.890;23.446;2023-04-08T03:26:20;91972.22;;;1.17;54.27
39455;BME280;25155;41.890;23.446;2023-04-08T03:28:47;91975.03;;;1.16;54.43
39455;BME280;25155;41.890;23.446;2023-04-08T03:31:14;91973.09;;;1.11;54.68
39455;BME280;25155;41.890;23.446;2023-04-08T03:33:42;91978.69;;;1.08;54.79
39455;BME280;25155;41.890;23.446;2023-04-08T03:36:09;91978.13;;;1.06;54.27
39455;BME280;25155;41.890;23.446;2023-04-08T03:38:36;91980.16;;;1.04;54.81
39455;BME280;25155;41.890;23.446;2023-04-08T03:41:03;91979.34;;;1.03;55.08
39455;BME280;25155;41.890;23.446;2023-04-08T03:43:32;91976.78;;;1.03;54.73
39455;BME280;25155;41.890;23.446;2023-04-08T03:46:02;91976.78;;;1.03;54.86
39455;BME280;25155;41.890;23.446;2023-04-08T03:48:29;91987.31;;;1.02;55.01
39455;BME280;25155;41.890;23.446;2023-04-08T03:50:57;91990.34;;;0.99;55.67
39455;BME280;25155;41.890;23.446;2023-04-08T03:53:24;91989.78;;;0.97;55.61
39455;BME280;25155;41.890;23.446;2023-04-08T03:55:54;91995.97;;;0.96;55.31
39455;BME280;25155;41.890;23.446;2023-04-08T03:58:22;92000.31;;;0.95;56.12
39455;BME280;25155;41.890;23.446;2023-04-08T04:00:51;91997.41;;;0.92;56.31
39455;BME280;25155;41.890;23.446;2023-04-08T04:03:18;92006.72;;;0.93;56.14
39455;BME280;25155;41.890;23.446;2023-04-08T04:05:45;91994.38;;;0.95;56.64
39455;BME280;25155;41.890;23.446;2023-04-08T04:08:12;91988.09;;;0.91;56.15
39455;BME280;25155;41.890;23.446;2023-04-08T04:10:39;91992.66;;;0.88;56.60
39455;BME280;25155;41.890;23.446;2023-04-08T04:13:06;91993.91;;;0.86;55.96
39455;BME280;25155;41.890;23.446;2023-04-08T04:15:37;91993.31;;;0.84;56.10
39455;BME280;25155;41.890;23.446;2023-04-08T04:18:06;91988.97;;;0.84;55.79
39455;BME280;25155;41.890;23.446;2023-04-08T04:20:33;91992.66;;;0.88;55.73
39455;BME280;25155;41.890;23.446;2023-04-08T04:23:01;91992.44;;;0.90;55.83
39455;BME280;25155;41.890;23.446;2023-04-08T04:25:28;92001.56;;;0.93;55.78
39455;BME280;25155;41.890;23.446;2023-04-08T04:27:55;91990.00;;;0.95;55.78
39455;BME280;25155;41.890;23.446;2023-04-08T04:30:23;91987.19;;;0.97;55.90
39455;BME280;25155;41.890;23.446;2023-04-08T04:32:50;91998.31;;;0.97;55.64
39455;BME280;25155;41.890;23.446;2023-04-08T04:35:19;91987.19;;;0.97;56.25
39455;BME280;25155;41.890;23.446;2023-04-08T04:37:47;92002.25;;;1.00;56.04
39455;BME280;25155;41.890;23.446;2023-04-08T04:40:16;91991.56;;;0.96;56.72
39455;BME280;25155;41.890;23.446;2023-04-08T04:42:44;91997.53;;;0.97;56.08
39455;BME280;25155;41.890;23.446;2023-04-08T04:45:11;92001.13;;;0.96;56.30
39455;BME280;25155;41.890;23.446;2023-04-08T04:47:38;91990.22;;;0.94;56.23
39455;BME280;25155;41.890;23.446;2023-04-08T04:50:06;91991.47;;;1.03;56.22
39455;BME280;25155;41.890;23.446;2023-04-08T04:52:36;91993.28;;;1.02;56.97
39455;BME280;25155;41.890;23.446;2023-04-08T04:55:04;91993.06;;;1.04;56.85
39455;BME280;25155;41.890;23.446;2023-04-08T04:57:31;91998.91;;;1.11;56.61
39455;BME280;25155;41.890;23.446;2023-04-08T04:59:59;91994.88;;;1.15;56.44
39455;BME280;25155;41.890;23.446;2023-04-08T05:02:26;91999.59;;;1.18;56.66
39455;BME280;25155;41.890;23.446;2023-04-08T05:04:53;91998.16;;;1.22;56.52
39455;BME280;25155;41.890;23.446;2023-04-08T05:07:20;92000.16;;;1.20;57.30
39455;BME280;25155;41.890;23.446;2023-04-08T05:09:49;92003.09;;;1.24;57.13
39455;BME280;25155;41.890;23.446;2023-04-08T05:12:16;91997.03;;;1.30;57.38
39455;BME280;25155;41.890;23.446;2023-04-08T05:14:45;91996.59;;;1.33;56.80
39455;BME280;25155;41.890;23.446;2023-04-08T05:17:12;91997.38;;;1.34;57.19
39455;BME280;25155;41.890;23.446;2023-04-08T05:19:40;91999.75;;;1.35;56.80
39455;BME280;25155;41.890;23.446;2023-04-08T05:22:07;92002.06;;;1.37;56.97
39455;BME280;25155;41.890;23.446;2023-04-08T05:24:34;92004.09;;;1.35;57.48
39455;BME280;25155;41.890;23.446;2023-04-08T05:27:04;92001.19;;;1.31;57.06
39455;BME280;25155;41.890;23.446;2023-04-08T05:29:31;92005.69;;;1.36;57.22
39455;BME280;25155;41.890;23.446;2023-04-08T05:31:58;91996.91;;;1.37;57.76
39455;BME280;25155;41.890;23.446;2023-04-08T05:34:25;91998.06;;;1.41;57.38
39455;BME280;25155;41.890;23.446;2023-04-08T05:36:52;91989.66;;;1.46;57.66
39455;BME280;25155;41.890;23.446;2023-04-08T05:39:19;91989.53;;;1.52;57.23
39455;BME280;25155;41.890;23.446;2023-04-08T05:41:47;91996.41;;;1.58;57.74
39455;BME280;25155;41.890;23.446;2023-04-08T05:44:16;91995.47;;;1.65;57.38
39455;BME280;25155;41.890;23.446;2023-04-08T05:46:43;92001.13;;;1.73;57.39
39455;BME280;25155;41.890;23.446;2023-04-08T05:49:10;91994.47;;;1.77;57.98
39455;BME280;25155;41.890;23.446;2023-04-08T05:51:38;91988.19;;;1.73;57.43
39455;BME280;25155;41.890;23.446;2023-04-08T05:54:05;91994.81;;;1.81;57.64
39455;BME280;25155;41.890;23.446;2023-04-08T05:56:32;91997.06;;;1.89;57.81
39455;BME280;25155;41.890;23.446;2023-04-08T05:59:00;91998.19;;;1.93;57.50
39455;BME280;25155;41.890;23.446;2023-04-08T06:01:29;91997.84;;;2.02;56.98
39455;BME280;25155;41.890;23.446;2023-04-08T06:03:56;91986.47;;;2.03;57.35
39455;BME280;25155;41.890;23.446;2023-04-08T06:06:23;91987.81;;;2.05;57.68
39455;BME280;25155;41.890;23.446;2023-04-08T06:08:51;91987.03;;;2.05;57.38
39455;BME280;25155;41.890;23.446;2023-04-08T06:11:19;91989.16;;;2.08;57.26
39455;BME280;25155;41.890;23.446;2023-04-08T06:13:46;91985.22;;;2.17;57.92
39455;BME280;25155;41.890;23.446;2023-04-08T06:16:14;91988.66;;;2.34;57.85
39455;BME280;25155;41.890;23.446;2023-04-08T06:18:44;91989.88;;;2.44;57.67
39455;BME280;25155;41.890;23.446;2023-04-08T06:21:11;91990.88;;;2.54;56.86
39455;BME280;25155;41.890;23.446;2023-04-08T06:23:38;91992.75;;;2.59;57.33
39455;BME280;25155;41.890;23.446;2023-04-08T06:26:06;91992.16;;;2.69;56.70
39455;BME280;25155;41.890;23.446;2023-04-08T06:28:33;91988.88;;;2.73;56.30
39455;BME280;25155;41.890;23.446;2023-04-08T06:31:01;91994.22;;;2.84;55.90
39455;BME280;25155;41.890;23.446;2023-04-08T06:33:28;91990.53;;;2.80;56.00
39455;BME280;25155;41.890;23.446;2023-04-08T06:36:02;91986.38;;;2.79;55.32
39455;BME280;25155;41.890;23.446;2023-04-08T06:38:30;91987.03;;;2.86;54.82
39455;BME280;25155;41.890;23.446;2023-04-08T06:41:01;91987.44;;;2.95;54.35
39455;BME280;25155;41.890;23.446;2023-04-08T06:43:28;91995.31;;;3.00;54.59
39455;BME280;25155;41.890;23.446;2023-04-08T06:45:56;91986.41;;;3.07;54.80
39455;BME280;25155;41.890;23.446;2023-04-08T06:48:23;91987.56;;;3.17;55.14
39455;BME280;25155;41.890;23.446;2023-04-08T06:50:54;91985.72;;;3.29;55.48
39455;BME280;25155;41.890;23.446;2023-04-08T06:53:23;91976.44;;;3.33;55.51
39455;BME280;25155;41.890;23.446;2023-04-08T06:55:50;91981.16;;;3.53;55.96
39455;BME280;25155;41.890;23.446;2023-04-08T06:58:18;91971.25;;;3.67;55.58
39455;BME280;25155;41.890;23.446;2023-04-08T07:00:46;91968.41;;;3.86;55.62
39455;BME280;25155;41.890;23.446;2023-04-08T07:03:13;91973.84;;;4.06;54.94
39455;BME280;25155;41.890;23.446;2023-04-08T07:05:40;91971.75;;;4.25;54.08
39455;BME280;25155;41.890;23.446;2023-04-08T07:08:08;91968.50;;;4.35;53.14
39455;BME280;25155;41.890;23.446;2023-04-08T07:10:36;91971.41;;;4.38;53.40
39455;BME280;25155;41.890;23.446;2023-04-08T07:13:04;91970.56;;;4.55;53.63
39455;BME280;25155;41.890;23.446;2023-04-08T07:15:31;91966.53;;;4.69;52.94
39455;BME280;25155;41.890;23.446;2023-04-08T07:17:58;91960.09;;;4.72;51.03
39455;BME280;25155;41.890;23.446;2023-04-08T07:20:25;91965.03;;;4.73;52.18
39455;BME280;25155;41.890;23.446;2023-04-08T07:22:53;91962.50;;;4.79;51.62
39455;BME280;25155;41.890;23.446;2023-04-08T07:25:20;91968.50;;;4.84;52.13
39455;BME280;25155;41.890;23.446;2023-04-08T07:27:49;91974.50;;;4.85;51.80
39455;BME280;25155;41.890;23.446;2023-04-08T07:30:17;91969.66;;;4.93;52.21
39455;BME280;25155;41.890;23.446;2023-04-08T07:32:44;91970.72;;;4.98;51.72
39455;BME280;25155;41.890;23.446;2023-04-08T07:35:12;91977.72;;;4.97;52.34
39455;BME280;25155;41.890;23.446;2023-04-08T07:37:39;91967.09;;;4.99;52.12
39455;BME280;25155;41.890;23.446;2023-04-08T07:40:07;91970.06;;;5.12;53.01
39455;BME280;25155;41.890;23.446;2023-04-08T07:42:34;91969.94;;;5.24;54.12
39455;BME280;25155;41.890;23.446;2023-04-08T07:45:03;91970.53;;;5.37;53.76
39455;BME280;25155;41.890;23.446;2023-04-08T07:47:31;91963.94;;;5.51;52.36
39455;BME280;25155;41.890;23.446;2023-04-08T07:49:58;91962.38;;;5.55;51.56
39455;BME280;25155;41.890;23.446;2023-04-08T07:52:25;91967.63;;;5.60;51.01
39455;BME280;25155;41.890;23.446;2023-04-08T07:54:52;91965.06;;;5.65;50.68
39455;BME280;25155;41.890;23.446;2023-04-08T07:57:19;91979.13;;;5.70;50.56
39455;BME280;25155;41.890;23.446;2023-04-08T07:59:46;91969.78;;;5.74;49.29
39455;BME280;25155;41.890;23.446;2023-04-08T08:02:15;91972.56;;;5.62;49.46
39455;BME280;25155;41.890;23.446;2023-04-08T08:04:42;91980.59;;;5.55;50.32
39455;BME280;25155;41.890;23.446;2023-04-08T08:07:09;91974.84;;;5.53;49.54
39455;BME280;25155;41.890;23.446;2023-04-08T08:09:36;91976.47;;;5.59;50.16
39455;BME280;25155;41.890;23.446;2023-04-08T08:12:04;91977.56;;;5.68;49.69
39455;BME280;25155;41.890;23.446;2023-04-08T08:14:31;91968.47;;;5.66;49.39
39455;BME280;25155;41.890;23.446;2023-04-08T08:16:58;91971.31;;;5.64;49.28
39455;BME280;25155;41.890;23.446;2023-04-08T08:19:27;91970.31;;;5.71;49.73
39455;BME280;25155;41.890;23.446;2023-04-08T08:21:54;91972.47;;;5.84;49.39
39455;BME280;25155;41.890;23.446;2023-04-08T08:24:21;91975.19;;;6.04;50.58
39455;BME280;25155;41.890;23.446;2023-04-08T08:26:48;91969.59;;;6.28;50.55
39455;BME280;25155;41.890;23.446;2023-04-08T08:29:15;91962.66;;;6.54;50.67
39455;BME280;25155;41.890;23.446;2023-04-08T08:31:43;91960.94;;;6.81;51.15
39455;BME280;25155;41.890;23.446;2023-04-08T08:34:10;91959.94;;;7.02;51.20
39455;BME280;25155;41.890;23.446;2023-04-08T08:36:38;91950.59;;;7.22;49.68
39455;BME280;25155;41.890;23.446;2023-04-08T08:39:05;91951.13;;;7.39;48.82
39455;BME280;25155;41.890;23.446;2023-04-08T08:41:33;91941.75;;;7.53;47.92
39455;BME280;25155;41.890;23.446;2023-04-08T08:44:01;91952.47;;;7.67;48.70
39455;BME280;25155;41.890;23.446;2023-04-08T08:46:29;91946.97;;;7.74;46.19
39455;BME280;25155;41.890;23.446;2023-04-08T08:48:58;91944.88;;;7.66;45.41
39455;BME280;25155;41.890;23.446;2023-04-08T08:51:26;91949.56;;;7.69;46.01
39455;BME280;25155;41.890;23.446;2023-04-08T08:53:56;91947.75;;;7.69;46.08
39455;BME280;25155;41.890;23.446;2023-04-08T08:56:23;91955.84;;;7.73;46.52
39455;BME280;25155;41.890;23.446;2023-04-08T08:58:50;91954.25;;;7.82;46.19
39455;BME280;25155;41.890;23.446;2023-04-08T09:01:31;91953.22;;;7.78;43.71
39455;BME280;25155;41.890;23.446;2023-04-08T09:04:09;91961.31;;;7.77;44.74
39455;BME280;25155;41.890;23.446;2023-04-08T09:06:37;91959.19;;;7.84;45.23
39455;BME280;25155;41.890;23.446;2023-04-08T09:09:06;91959.22;;;7.89;44.17
39455;BME280;25155;41.890;23.446;2023-04-08T09:11:36;91955.28;;;7.86;42.06
39455;BME280;25155;41.890;23.446;2023-04-08T09:14:04;91956.31;;;7.90;41.76
39455;BME280;25155;41.890;23.446;2023-04-08T09:16:32;91958.41;;;7.88;42.08
39455;BME280;25155;41.890;23.446;2023-04-08T09:19:09;91960.00;;;7.74;41.75
39455;BME280;25155;41.890;23.446;2023-04-08T09:21:37;91957.41;;;7.74;42.19
39455;BME280;25155;41.890;23.446;2023-04-08T09:24:07;91955.31;;;7.66;42.85
39455;BME280;25155;41.890;23.446;2023-04-08T09:26:36;91963.16;;;7.71;41.08
39455;BME280;25155;41.890;23.446;2023-04-08T09:29:05;91962.88;;;7.73;41.25
39455;BME280;25155;41.890;23.446;2023-04-08T09:31:33;91955.84;;;7.73;40.53
39455;BME280;25155;41.890;23.446;2023-04-08T09:34:09;91965.50;;;7.67;40.61
39455;BME280;25155;41.890;23.446;2023-04-08T09:36:37;91965.75;;;7.71;40.82
39455;BME280;25155;41.890;23.446;2023-04-08T09:39:07;91961.81;;;7.68;40.49
39455;BME280;25155;41.890;23.446;2023-04-08T09:41:35;91972.25;;;7.74;41.10
39455;BME280;25155;41.890;23.446;2023-04-08T09:44:05;91971.47;;;7.78;39.93
39455;BME280;25155;41.890;23.446;2023-04-08T09:46:38;91972.00;;;7.80;40.17
39455;BME280;25155;41.890;23.446;2023-04-08T09:49:10;91966.78;;;7.80;39.23
39455;BME280;25155;41.890;23.446;2023-04-08T09:51:43;91973.81;;;7.90;38.99
39455;BME280;25155;41.890;23.446;2023-04-08T09:54:15;91977.75;;;7.82;38.76
39455;BME280;25155;41.890;23.446;2023-04-08T09:56:50;91974.09;;;7.78;39.91
39455;BME280;25155;41.890;23.446;2023-04-08T09:59:18;91977.47;;;7.74;39.28
39455;BME280;25155;41.890;23.446;2023-04-08T10:01:52;91968.34;;;7.81;39.70
39455;BME280;25155;41.890;23.446;2023-04-08T10:04:22;91975.13;;;7.82;39.39
39455;BME280;25155;41.890;23.446;2023-04-08T10:06:53;91978.00;;;7.65;39.46
39455;BME280;25155;41.890;23.446;2023-04-08T10:09:26;91974.09;;;7.58;39.61
39455;BME280;25155;41.890;23.446;2023-04-08T10:11:54;91975.66;;;7.43;38.14
39455;BME280;25155;41.890;23.446;2023-04-08T10:14:21;91975.06;;;7.31;38.82
39455;BME280;25155;41.890;23.446;2023-04-08T10:20:01;91972.53;;;7.36;40.06
39455;BME280;25155;41.890;23.446;2023-04-08T10:22:47;91960.00;;;7.33;41.31
39455;BME280;25155;41.890;23.446;2023-04-08T10:25:34;91975.06;;;7.31;40.85
39455;BME280;25155;41.890;23.446;2023-04-08T10:28:24;91971.47;;;7.37;40.14
39455;BME280;25155;41.890;23.446;2023-04-08T10:30:52;91969.16;;;7.61;41.65
39455;BME280;25155;41.890;23.446;2023-04-08T10:33:21;91971.47;;;7.88;42.22
39455;BME280;25155;41.890;23.446;2023-04-08T10:35:53;91965.13;;;8.20;43.24
39455;BME280;25155;41.890;23.446;2023-04-08T10:38:20;91962.16;;;8.53;43.07
39455;BME280;25155;41.890;23.446;2023-04-08T10:40:49;91957.34;;;8.80;44.39
39455;BME280;25155;41.890;23.446;2023-04-08T10:43:17;91938.75;;;8.92;39.89
39455;BME280;25155;41.890;23.446;2023-04-08T10:45:44;91938.75;;;8.92;39.06
39455;BME280;25155;41.890;23.446;2023-04-08T10:48:17;91940.31;;;8.98;40.01
39455;BME280;25155;41.890;23.446;2023-04-08T10:50:51;91937.50;;;8.79;38.46
39455;BME280;25155;41.890;23.446;2023-04-08T10:53:25;91936.53;;;8.60;39.91
39455;BME280;25155;41.890;23.446;2023-04-08T10:55:54;91937.88;;;8.57;40.47
39455;BME280;25155;41.890;23.446;2023-04-08T10:58:29;91944.94;;;8.47;39.85
39455;BME280;25155;41.890;23.446;2023-04-08T11:01:02;91937.63;;;8.43;40.11
39455;BME280;25155;41.890;23.446;2023-04-08T11:03:31;91946.25;;;8.49;40.79
39455;BME280;25155;41.890;23.446;2023-04-08T11:05:59;91935.00;;;8.54;40.42
39455;BME280;25155;41.890;23.446;2023-04-08T11:08:28;91936.78;;;8.63;40.79
39455;BME280;25155;41.890;23.446;2023-04-08T11:10:57;91927.81;;;8.85;41.04
39455;BME280;25155;41.890;23.446;2023-04-08T11:13:26;91931.34;;;9.05;40.07
39455;BME280;25155;41.890;23.446;2023-04-08T11:15:54;91933.69;;;9.06;40.59
39455;BME280;25155;41.890;23.446;2023-04-08T11:18:22;91926.13;;;9.10;40.36
39455;BME280;25155;41.890;23.446;2023-04-08T11:20:50;91921.91;;;9.14;40.70
39455;BME280;25155;41.890;23.446;2023-04-08T11:23:17;91917.44;;;9.14;39.35
39455;BME280;25155;41.890;23.446;2023-04-08T11:25:45;91915.91;;;9.13;39.33
39455;BME280;25155;41.890;23.446;2023-04-08T11:28:16;91912.75;;;9.16;40.42
39455;BME280;25155;41.890;23.446;2023-04-08T11:30:43;91903.81;;;9.17;39.90
39455;BME280;25155;41.890;23.446;2023-04-08T11:33:13;91915.63;;;9.15;39.68
39455;BME280;25155;41.890;23.446;2023-04-08T11:35:40;91908.34;;;9.07;38.85
39455;BME280;25155;41.890;23.446;2023-04-08T11:38:09;91912.78;;;9.06;39.55
39455;BME280;25155;41.890;23.446;2023-04-08T11:40:36;91904.69;;;9.08;39.05
39455;BME280;25155;41.890;23.446;2023-04-08T11:43:08;91908.34;;;9.07;39.75
39455;BME280;25155;41.890;23.446;2023-04-08T11:45:39;91894.75;;;9.05;39.49
39455;BME280;25155;41.890;23.446;2023-04-08T11:48:10;91903.38;;;9.10;39.48
39455;BME280;25155;41.890;23.446;2023-04-08T11:50:40;91901.31;;;9.02;38.24
39455;BME280;25155;41.890;23.446;2023-04-08T11:53:15;91893.31;;;8.83;38.90
39455;BME280;25155;41.890;23.446;2023-04-08T11:55:44;91884.66;;;8.93;38.47
39455;BME280;25155;41.890;23.446;2023-04-08T11:58:11;91897.19;;;8.96;37.10
39455;BME280;25155;41.890;23.446;2023-04-08T12:00:40;91889.63;;;8.89;38.55
39455;BME280;25155;41.890;23.446;2023-04-08T12:03:08;91887.78;;;8.95;38.91
39455;BME280;25155;41.890;23.446;2023-04-08T12:05:35;91885.97;;;8.90;38.02
39455;BME280;25155;41.890;23.446;2023-04-08T12:08:02;91891.22;;;8.85;38.44
39455;BME280;25155;41.890;23.446;2023-04-08T12:10:30;91894.34;;;8.87;38.40
39455;BME280;25155;41.890;23.446;2023-04-08T12:12:57;91886.72;;;8.96;38.59
39455;BME280;25155;41.890;23.446;2023-04-08T12:15:24;91882.72;;;9.09;38.54
39455;BME280;25155;41.890;23.446;2023-04-08T12:17:53;91876.72;;;9.03;38.19
39455;BME280;25155;41.890;23.446;2023-04-08T12:20:20;91878.56;;;9.03;38.41
39455;BME280;25155;41.890;23.446;2023-04-08T12:22:47;91870.50;;;8.99;38.37
39455;BME280;25155;41.890;23.446;2023-04-08T12:25:15;91871.00;;;9.01;38.68
39455;BME280;25155;41.890;23.446;2023-04-08T12:27:42;91872.56;;;9.02;37.97
39455;BME280;25155;41.890;23.446;2023-04-08T12:30:10;91860.28;;;9.03;37.97
39455;BME280;25155;41.890;23.446;2023-04-08T12:32:38;91854.50;;;9.06;37.44
39455;BME280;25155;41.890;23.446;2023-04-08T12:35:08;91856.03;;;9.12;37.84
39455;BME280;25155;41.890;23.446;2023-04-08T12:37:35;91851.50;;;9.23;38.14
39455;BME280;25155;41.890;23.446;2023-04-08T12:40:02;91843.88;;;9.26;37.54
39455;BME280;25155;41.890;23.446;2023-04-08T12:42:31;91845.50;;;9.22;37.77
39455;BME280;25155;41.890;23.446;2023-04-08T12:44:59;91840.22;;;9.27;38.02
39455;BME280;25155;41.890;23.446;2023-04-08T12:47:26;91831.28;;;9.33;38.21
39455;BME280;25155;41.890;23.446;2023-04-08T12:49:53;91831.28;;;9.33;38.01
39455;BME280;25155;41.890;23.446;2023-04-08T12:52:23;91838.63;;;9.31;37.76
39455;BME280;25155;41.890;23.446;2023-04-08T12:54:50;91834.97;;;9.27;38.43
39455;BME280;25155;41.890;23.446;2023-04-08T12:57:17;91832.97;;;9.19;38.17
39455;BME280;25155;41.890;23.446;2023-04-08T12:59:44;91831.97;;;9.15;38.16
39455;BME280;25155;41.890;23.446;2023-04-08T13:02:12;91832.50;;;9.12;37.46
39455;BME280;25155;41.890;23.446;2023-04-08T13:04:39;91830.47;;;9.04;37.26
39455;BME280;25155;41.890;23.446;2023-04-08T13:07:06;91829.22;;;8.96;37.49
39455;BME280;25155;41.890;23.446;2023-04-08T13:09:35;91826.88;;;8.94;39.15